Time;durP1;ratioP1;P1;durP2;ratioP2;P2;SDS_P1;SDS_P2;PMS_P1;PMS_P2;Temp;Humidity;BMP_temperature;BMP_pressure;BME280_temperature;BME280_humidity;BME280_pressure;Samples;Min_cycle;Max_cycle;Signal;HPM_P1;HPM_P2
2021/07/16 00:00:29;;;;;;;12.78;7.78;;;;;;;21.31;100.00;100723.16;1702672;82;21066;-89
2021/07/16 00:02:56;;;;;;;13.80;7.58;;;;;;;21.19;100.00;100718.83;1758998;79;21065;-88
2021/07/16 00:05:23;;;;;;;10.95;7.08;;;;;;;21.07;100.00;100711.84;1768422;79;21385;-94
2021/07/16 00:07:50;;;;;;;8.70;6.85;;;;;;;21.00;100.00;100701.64;1774789;79;21651;-93
2021/07/16 00:10:20;;;;;;;12.05;6.78;;;;;;;20.95;100.00;100695.59;1785861;79;21087;-91
2021/07/16 00:12:49;;;;;;;15.23;6.80;;;;;;;20.90;100.00;100686.03;1773564;79;20997;-91
2021/07/16 00:15:19;;;;;;;8.15;7.00;;;;;;;20.85;100.00;100678.64;1785953;79;21069;-93
2021/07/16 00:17:50;;;;;;;11.00;7.10;;;;;;;20.79;100.00;100682.83;1771887;79;21062;-88
2021/07/16 00:20:19;;;;;;;11.88;7.05;;;;;;;20.70;100.00;100676.45;1802658;79;21105;-88
2021/07/16 00:22:47;;;;;;;11.95;7.28;;;;;;;20.60;100.00;100674.08;1784023;79;21073;-92
2021/07/16 00:25:14;;;;;;;13.53;6.62;;;;;;;20.46;100.00;100669.91;1771761;79;21559;-93
2021/07/16 00:27:41;;;;;;;10.08;6.95;;;;;;;20.33;100.00;100668.36;1803324;78;21042;-93
2021/07/16 00:30:11;;;;;;;9.25;7.08;;;;;;;20.19;100.00;100662.02;1786452;79;21089;-89
2021/07/16 00:32:39;;;;;;;9.68;6.03;;;;;;;20.11;100.00;100661.59;1775046;79;21394;-90
2021/07/16 00:35:07;;;;;;;9.25;6.45;;;;;;;20.07;100.00;100661.62;1772064;79;21042;-87
2021/07/16 00:37:34;;;;;;;8.73;6.53;;;;;;;20.03;100.00;100668.27;1774545;79;21555;-89
2021/07/16 00:40:06;;;;;;;9.30;6.83;;;;;;;19.98;100.00;100662.70;1745373;79;21179;-89
2021/07/16 00:42:33;;;;;;;7.70;6.90;;;;;;;19.94;100.00;100661.39;1755346;78;21569;-87
2021/07/16 00:45:00;;;;;;;13.25;7.15;;;;;;;19.97;100.00;100666.34;1779322;79;20931;-91
2021/07/16 00:47:27;;;;;;;8.15;6.62;;;;;;;20.04;100.00;100666.44;1773941;79;21458;-93
2021/07/16 00:49:55;;;;;;;9.28;6.42;;;;;;;20.15;100.00;100665.52;1800923;79;20987;-85
2021/07/16 00:52:22;;;;;;;9.68;6.55;;;;;;;20.25;100.00;100671.06;1765887;79;21399;-93
2021/07/16 00:54:51;;;;;;;8.18;6.17;;;;;;;20.31;100.00;100666.41;1782108;79;21006;-93
2021/07/16 00:57:19;;;;;;;10.13;6.67;;;;;;;20.37;100.00;100670.14;1768626;79;20931;-89
2021/07/16 00:59:46;;;;;;;18.75;6.85;;;;;;;20.41;100.00;100664.31;1783060;78;21666;-86
2021/07/16 01:02:13;;;;;;;33.53;7.55;;;;;;;20.47;100.00;100665.43;1796262;78;21045;-92
2021/07/16 01:04:40;;;;;;;33.90;7.70;;;;;;;20.51;100.00;100670.67;1742943;79;20958;-89
2021/07/16 01:07:08;;;;;;;27.10;7.12;;;;;;;20.57;100.00;100666.48;1773683;79;21473;-89
2021/07/16 01:09:35;;;;;;;19.42;6.83;;;;;;;20.61;100.00;100663.30;1764651;79;21065;-88
2021/07/16 01:12:04;;;;;;;14.45;6.30;;;;;;;20.67;100.00;100669.70;1771657;79;21037;-88
2021/07/16 01:14:31;;;;;;;10.93;6.37;;;;;;;20.68;100.00;100672.67;1769692;79;21042;-90
2021/07/16 01:17:00;;;;;;;12.43;6.62;;;;;;;20.67;100.00;100670.22;1791361;79;21073;-87
2021/07/16 01:19:54;;;;;;;9.65;6.20;;;;;;;20.63;100.00;100675.05;1759917;79;21239;-90
2021/07/16 01:22:28;;;;;;;11.75;7.20;;;;;;;20.61;100.00;100674.40;1746046;79;21160;-91
2021/07/16 01:24:57;;;;;;;8.80;6.25;;;;;;;20.64;100.00;100677.98;1771503;79;21011;-88
2021/07/16 01:27:25;;;;;;;17.45;6.95;;;;;;;20.67;100.00;100679.48;1795472;79;21423;-89
2021/07/16 01:29:54;;;;;;;9.28;6.53;;;;;;;20.67;100.00;100677.64;1782416;79;21046;-85
2021/07/16 01:32:21;;;;;;;17.40;7.33;;;;;;;20.68;100.00;100678.45;1795095;78;21164;-89
2021/07/16 01:34:49;;;;;;;15.43;7.67;;;;;;;20.68;100.00;100675.80;1774621;79;21171;-92
2021/07/16 01:37:16;;;;;;;16.97;6.90;;;;;;;20.70;100.00;100679.94;1777307;79;21489;-88
2021/07/16 01:39:43;;;;;;;25.30;7.67;;;;;;;20.76;100.00;100678.40;1726407;82;21152;-89
2021/07/16 01:42:12;;;;;;;17.95;7.53;;;;;;;20.80;100.00;100671.76;1752118;79;21106;-89
2021/07/16 01:44:41;;;;;;;19.12;6.87;;;;;;;20.83;100.00;100671.89;1747170;79;21288;-89
2021/07/16 01:47:10;;;;;;;15.13;7.20;;;;;;;20.82;100.00;100664.95;1737359;81;21061;-88
2021/07/16 01:49:37;;;;;;;14.65;7.33;;;;;;;20.80;100.00;100665.14;1776280;79;21001;-89
2021/07/16 01:52:06;;;;;;;14.13;7.15;;;;;;;20.76;100.00;100672.62;1776158;78;21231;-88
2021/07/16 01:54:34;;;;;;;11.48;6.72;;;;;;;20.72;100.00;100673.13;1775986;79;21582;-91
2021/07/16 01:57:02;;;;;;;12.85;7.00;;;;;;;20.68;100.00;100668.70;1775666;79;21143;-88
2021/07/16 01:59:32;;;;;;;12.00;6.67;;;;;;;20.63;100.00;100665.28;1770022;78;20938;-88
2021/07/16 02:01:59;;;;;;;12.28;6.78;;;;;;;20.59;100.00;100663.17;1712184;81;21022;-89
2021/07/16 02:04:27;;;;;;;11.05;6.80;;;;;;;20.55;100.00;100671.97;1811499;78;20941;-92
2021/07/16 02:06:56;;;;;;;13.83;7.30;;;;;;;20.54;100.00;100667.67;1782952;78;21012;-92
2021/07/16 02:09:24;;;;;;;11.25;7.15;;;;;;;20.53;100.00;100666.55;1785104;78;21192;-87
2021/07/16 02:11:56;;;;;;;11.12;7.20;;;;;;;20.51;100.00;100671.19;1788874;78;21152;-88
2021/07/16 02:14:23;;;;;;;11.70;7.10;;;;;;;20.49;100.00;100666.89;1805266;78;21014;-86
2021/07/16 02:16:50;;;;;;;14.78;7.50;;;;;;;20.47;100.00;100668.08;1789579;78;21431;-90
2021/07/16 02:19:19;;;;;;;8.70;7.80;;;;;;;20.43;100.00;100671.58;1782246;78;21069;-87
2021/07/16 02:21:46;;;;;;;19.15;6.92;;;;;;;20.37;100.00;100668.34;1801810;78;21067;-86
2021/07/16 02:24:14;;;;;;;23.20;7.90;;;;;;;20.32;100.00;100670.19;1788373;77;21043;-88
2021/07/16 02:26:41;;;;;;;12.30;6.67;;;;;;;20.33;100.00;100671.00;1787403;78;21005;-91
2021/07/16 02:29:08;;;;;;;14.70;7.22;;;;;;;20.36;100.00;100675.11;1793598;79;21635;-90
2021/07/16 02:31:35;;;;;;;9.40;7.55;;;;;;;20.33;100.00;100665.23;1792161;78;21042;-86
2021/07/16 02:34:03;;;;;;;9.05;7.10;;;;;;;20.34;100.00;100666.04;1798706;78;21897;-92
2021/07/16 02:36:31;;;;;;;10.03;7.08;;;;;;;20.34;100.00;100664.72;1704494;82;21039;-89
2021/07/16 02:38:58;;;;;;;12.80;7.30;;;;;;;20.36;100.00;100661.40;1753731;79;21121;-91
2021/07/16 02:41:25;;;;;;;13.68;7.90;;;;;;;20.40;100.00;100660.03;1766948;79;21612;-89
2021/07/16 02:43:52;;;;;;;15.45;8.55;;;;;;;20.45;100.00;100660.81;1698266;83;21114;-88
2021/07/16 02:46:19;;;;;;;10.98;8.00;;;;;;;20.44;100.00;100646.78;1765836;78;21087;-88
2021/07/16 02:48:48;;;;;;;11.03;7.78;;;;;;;20.44;100.00;100657.36;1778403;77;20993;-86
2021/07/16 02:51:15;;;;;;;11.43;8.45;;;;;;;20.47;100.00;100661.46;1751063;79;21123;-90
2021/07/16 02:53:42;;;;;;;13.40;8.43;;;;;;;20.50;100.00;100657.15;1772284;79;20998;-92
2021/07/16 02:56:09;;;;;;;15.55;8.63;;;;;;;20.53;100.00;100657.28;1743198;80;21003;-90
2021/07/16 02:58:36;;;;;;;29.07;9.63;;;;;;;20.55;100.00;100665.36;1772747;78;21069;-92
2021/07/16 03:01:04;;;;;;;38.28;10.13;;;;;;;20.58;100.00;100666.81;1790541;78;21125;-90
2021/07/16 03:03:31;;;;;;;36.35;10.60;;;;;;;20.63;100.00;100665.28;1751881;79;21038;-90
2021/07/16 03:05:58;;;;;;;31.70;10.28;;;;;;;20.70;100.00;100657.45;1767024;79;20998;-88
2021/07/16 03:08:26;;;;;;;23.15;10.95;;;;;;;20.77;100.00;100663.69;1768723;79;21561;-88
2021/07/16 03:10:54;;;;;;;20.62;10.55;;;;;;;20.86;100.00;100658.31;1780869;79;20985;-87
2021/07/16 03:13:22;;;;;;;43.92;11.18;;;;;;;20.96;100.00;100658.83;1778528;78;21072;-91
2021/07/16 03:15:49;;;;;;;40.73;12.70;;;;;;;21.05;100.00;100656.94;1774799;78;21071;-91
2021/07/16 03:18:20;;;;;;;27.55;11.28;;;;;;;21.22;100.00;100654.90;1801632;77;21603;-88
2021/07/16 03:20:48;;;;;;;27.17;10.68;;;;;;;21.39;100.00;100652.88;1770514;78;21006;-86
2021/07/16 03:23:21;;;;;;;18.27;10.70;;;;;;;21.48;100.00;100650.93;1803446;78;21945;-90
2021/07/16 03:25:51;;;;;;;16.73;10.43;;;;;;;21.53;100.00;100645.88;1802182;78;21084;-87
2021/07/16 03:28:19;;;;;;;15.45;10.38;;;;;;;21.55;100.00;100650.50;1777384;78;21626;-88
2021/07/16 03:30:51;;;;;;;15.40;10.72;;;;;;;21.58;100.00;100656.27;1805187;77;21029;-85
2021/07/16 03:33:16;;;;;;;14.45;10.30;;;;;;;21.66;100.00;100655.34;1803932;78;21564;-86
2021/07/16 03:35:44;;;;;;;28.10;10.72;;;;;;;21.73;100.00;100656.23;1815433;78;20937;-87
2021/07/16 03:38:11;;;;;;;20.25;11.03;;;;;;;21.82;100.00;100664.06;1777884;78;21551;-86
2021/07/16 03:40:39;;;;;;;24.07;13.00;;;;;;;21.89;100.00;100665.76;1764001;79;20983;-87
2021/07/16 03:43:06;;;;;;;29.57;14.70;;;;;;;21.92;100.00;100670.38;1795092;77;21504;-88
2021/07/16 03:45:34;;;;;;;20.85;13.08;;;;;;;21.81;100.00;100677.80;1774016;77;21172;-85
2021/07/16 03:48:01;;;;;;;22.70;13.35;;;;;;;21.71;100.00;100674.66;1762285;79;21129;-86
2021/07/16 03:50:28;;;;;;;23.85;13.78;;;;;;;21.67;100.00;100674.19;1769633;78;20991;-87
2021/07/16 03:52:55;;;;;;;22.15;14.00;;;;;;;21.68;100.00;100677.67;1783415;78;21005;-90
2021/07/16 03:55:23;;;;;;;22.95;14.73;;;;;;;21.71;100.00;100679.44;1694083;82;21015;-84
2021/07/16 03:57:51;;;;;;;25.43;15.63;;;;;;;21.72;100.00;100683.73;1769729;77;21085;-87
2021/07/16 04:00:28;;;;;;;28.92;16.12;;;;;;;21.75;100.00;100676.72;1794778;79;21148;-90
2021/07/16 04:02:57;;;;;;;26.50;15.48;;;;;;;21.83;100.00;100680.28;1770409;78;22645;-85
2021/07/16 04:05:25;;;;;;;21.20;14.73;;;;;;;21.93;100.00;100680.78;1768232;78;21638;-88
2021/07/16 04:08:01;;;;;;;22.67;14.98;;;;;;;22.08;100.00;100677.23;1779432;78;21037;-92
2021/07/16 04:10:23;;;;;;;26.48;14.95;;;;;;;22.20;100.00;100675.21;1772592;78;21092;-89
2021/07/16 04:12:58;;;;;;;20.05;14.73;;;;;;;22.35;100.00;100665.86;1804070;78;21194;-87
2021/07/16 04:15:25;;;;;;;24.30;15.55;;;;;;;22.51;100.00;100664.77;1777211;79;21203;-88
2021/07/16 04:17:55;;;;;;;35.00;16.55;;;;;;;22.67;100.00;100668.97;1777951;79;21061;-92
2021/07/16 04:20:22;;;;;;;24.23;17.07;;;;;;;22.82;100.00;100663.56;1803408;78;21092;-88
2021/07/16 04:22:50;;;;;;;26.27;16.70;;;;;;;22.95;100.00;100658.84;1779140;78;21095;-88
2021/07/16 04:25:19;;;;;;;31.48;17.17;;;;;;;23.09;100.00;100662.36;1805420;78;21068;-86
2021/07/16 04:27:52;;;;;;;23.73;18.07;;;;;;;23.23;100.00;100657.97;1779524;78;21006;-88
2021/07/16 04:30:22;;;;;;;25.15;17.05;;;;;;;23.38;100.00;100659.64;1779934;79;21157;-86
2021/07/16 04:32:51;;;;;;;30.43;17.95;;;;;;;23.50;100.00;100658.56;1771270;78;21041;-89
2021/07/16 04:35:18;;;;;;;25.00;18.20;;;;;;;23.65;100.00;100651.76;1753180;79;20938;-89
2021/07/16 04:37:46;;;;;;;25.50;19.95;;;;;;;23.76;100.00;100651.15;1762256;78;21066;-85
2021/07/16 04:40:17;;;;;;;28.95;18.15;;;;;;;23.88;100.00;100648.71;1801377;78;21070;-88
2021/07/16 04:42:49;;;;;;;20.50;16.93;;;;;;;23.99;100.00;100652.66;1765560;77;21072;-87
2021/07/16 04:45:17;;;;;;;21.50;18.40;;;;;;;24.07;100.00;100651.95;1804250;78;24056;-90
2021/07/16 04:47:44;;;;;;;24.00;17.15;;;;;;;24.18;100.00;100649.70;1776406;78;21173;-89
2021/07/16 04:50:14;;;;;;;27.87;18.85;;;;;;;24.28;100.00;100654.08;1777366;78;21901;-85
2021/07/16 04:52:45;;;;;;;;;;;;;;;24.38;100.00;100651.02;1808630;78;21042;-87
2021/07/16 04:55:14;;;;;;;29.95;20.55;;;;;;;24.48;100.00;100649.27;1810919;78;20120;-89
2021/07/16 04:57:42;;;;;;;27.50;19.10;;;;;;;24.55;100.00;100650.91;1775453;79;21046;-84
2021/07/16 05:00:11;;;;;;;40.83;21.05;;;;;;;24.65;100.00;100650.97;1801324;78;21065;-88
2021/07/16 05:02:40;;;;;;;38.08;21.25;;;;;;;24.74;100.00;100651.09;1798503;77;21745;-86
2021/07/16 05:05:09;;;;;;;35.17;21.82;;;;;;;24.83;100.00;100647.70;1778089;79;21153;-90
2021/07/16 05:07:36;;;;;;;35.95;22.67;;;;;;;24.94;100.00;100652.89;1804175;78;21442;-90
2021/07/16 05:10:06;;;;;;;40.95;25.50;;;;;;;25.03;100.00;100652.96;1803689;77;21066;-87
2021/07/16 05:12:34;;;;;;;35.30;24.18;;;;;;;25.12;100.00;100652.20;1765701;79;21030;-85
2021/07/16 05:15:05;;;;;;;38.95;23.90;;;;;;;25.23;100.00;100654.71;1775825;77;21518;-86
2021/07/16 05:17:32;;;;;;;40.12;24.47;;;;;;;25.33;100.00;100653.75;1772747;79;21045;-84
2021/07/16 05:19:59;;;;;;;38.10;24.32;;;;;;;25.42;100.00;100657.00;1776441;78;21070;-89
2021/07/16 05:22:37;;;;;;;36.10;23.30;;;;;;;25.49;100.00;100655.95;1793828;79;21060;-88
2021/07/16 05:25:09;;;;;;;35.33;24.00;;;;;;;25.57;100.00;100651.40;1776029;78;20930;-88
2021/07/16 05:31:22;;;;;;;45.50;29.72;;;;;;;25.78;100.00;100652.91;1676018;82;21594;-89
2021/07/16 05:33:50;;;;;;;39.78;23.92;;;;;;;25.93;100.00;100652.08;1688549;82;21130;-90
2021/07/16 05:36:19;;;;;;;37.53;23.22;;;;;;;26.04;100.00;100651.89;1710992;79;21180;-86
2021/07/16 05:39:04;;;;;;;;;;;;;;;;;;;;;
2021/07/16 05:41:38;;;;;;;35.00;23.40;;;;;;;26.23;100.00;100653.32;1559383;87;21175;-89
2021/07/16 05:47:07;;;;;;;;;;;;;;;;;;;;;
2021/07/16 05:49:53;;;;;;;44.63;27.50;;;;;;;26.47;100.00;100652.98;1494064;91;21100;-91
2021/07/16 05:52:56;;;;;;;;;;;;;;;;;;;;;
2021/07/16 05:55:00;;;;;;;50.65;22.27;;;;;;;26.69;100.00;100644.04;1625588;85;21165;-86
2021/07/16 05:57:30;;;;;;;38.95;21.62;;;;;;;26.79;100.00;100640.06;1659461;84;21152;-89
2021/07/16 05:59:58;;;;;;;36.15;21.30;;;;;;;26.88;100.00;100634.20;1636515;85;21062;-88
2021/07/16 06:02:31;;;;;;;31.48;19.10;;;;;;;27.00;100.00;100630.25;1644777;85;21129;-90
2021/07/16 06:05:10;;;;;;;40.30;21.75;;;;;;;27.09;100.00;100632.09;1657712;84;21090;-93
2021/07/16 06:07:44;;;;;;;38.70;22.53;;;;;;;27.16;100.00;100627.47;1628715;84;21017;-95
2021/07/16 06:10:12;;;;;;;50.85;29.65;;;;;;;27.27;100.00;100626.42;1767466;77;21345;-89
2021/07/16 06:12:39;;;;;;;38.13;22.13;;;;;;;27.35;100.00;100615.41;1781309;78;20954;-91
2021/07/16 06:15:17;;;;;;;30.70;19.70;;;;;;;27.44;100.00;100614.08;1808719;77;20952;-92
2021/07/16 06:21:12;;;;;;;34.43;21.80;;;;;;;27.59;100.00;100609.66;1656677;83;21478;-91
2021/07/16 06:23:50;;;;;;;38.15;21.85;;;;;;;27.70;100.00;100612.86;1732632;79;21148;-93
2021/07/16 06:26:13;;;;;;;36.90;23.00;;;;;;;27.78;100.00;100598.85;1777406;79;21041;-88
2021/07/16 06:28:40;;;;;;;37.17;22.50;;;;;;;27.86;100.00;100606.54;1791807;78;21053;-88
2021/07/16 06:31:07;;;;;;;44.50;24.82;;;;;;;27.94;100.00;100600.05;1781251;78;21009;-88
2021/07/16 06:33:34;;;;;;;42.33;24.10;;;;;;;28.00;100.00;100595.91;1786723;78;21499;-86
2021/07/16 06:36:07;;;;;;;45.48;24.72;;;;;;;28.08;100.00;100596.13;1779305;78;21714;-91
2021/07/16 06:38:45;;;;;;;;;;;;;;;;;;;;;
2021/07/16 06:41:09;;;;;;;43.20;26.45;;;;;;;28.25;100.00;100589.53;1762905;77;21065;-91
2021/07/16 06:43:37;;;;;;;47.83;27.73;;;;;;;28.36;100.00;100587.09;1738399;78;21037;-90
2021/07/16 06:46:04;;;;;;;42.50;24.77;;;;;;;28.45;100.00;100589.16;1729540;81;21516;-91
2021/07/16 06:48:31;;;;;;;42.05;24.20;;;;;;;28.54;100.00;100592.81;1732522;80;21077;-89
2021/07/16 06:50:59;;;;;;;45.23;25.97;;;;;;;28.63;100.00;100594.91;1778929;77;21105;-90
2021/07/16 06:53:26;;;;;;;44.33;25.57;;;;;;;28.69;100.00;100595.80;1771106;78;21102;-92
2021/07/16 06:55:55;;;;;;;56.02;25.52;;;;;;;28.76;100.00;100591.69;1806587;78;21046;-87
2021/07/16 06:58:23;;;;;;;39.78;24.15;;;;;;;28.84;100.00;100599.90;1767933;78;20975;-88
2021/07/16 07:00:50;;;;;;;37.48;23.00;;;;;;;28.92;100.00;100596.30;1772273;79;21519;-92
2021/07/16 07:03:17;;;;;;;38.90;22.42;;;;;;;29.02;100.00;100596.22;1780366;79;21120;-93
2021/07/16 07:05:45;;;;;;;28.95;19.85;;;;;;;29.07;100.00;100594.45;1776372;79;21045;-91
2021/07/16 07:08:12;;;;;;;29.95;20.48;;;;;;;29.15;100.00;100589.76;1792403;78;21167;-88
2021/07/16 07:10:45;;;;;;;39.18;22.62;;;;;;;29.22;99.06;100586.40;1775369;79;21644;-90
2021/07/16 07:13:32;;;;;;;;;;;;;;;;;;;;;
2021/07/16 07:15:57;;;;;;;39.65;21.45;;;;;;;29.38;100.00;100586.98;1658434;78;21058;-88
2021/07/16 07:18:26;;;;;;;40.12;21.57;;;;;;;29.50;98.33;100585.58;1787200;78;21126;-89
2021/07/16 07:20:55;;;;;;;23.18;14.40;;;;;;;29.61;97.85;100587.06;1768908;78;21121;-91
2021/07/16 07:23:22;;;;;;;23.27;14.40;;;;;;;29.70;81.32;100586.95;1788853;78;21896;-89
2021/07/16 07:25:50;;;;;;;20.80;15.80;;;;;;;29.77;65.17;100590.81;1806125;78;20915;-88
2021/07/16 07:28:17;;;;;;;21.95;14.63;;;;;;;29.79;82.05;100586.83;1783096;78;21796;-86
2021/07/16 07:30:45;;;;;;;27.50;15.32;;;;;;;29.81;71.10;100587.41;1778272;78;21014;-92
2021/07/16 07:33:12;;;;;;;33.23;16.42;;;;;;;29.85;80.42;100594.44;1781010;79;20989;-92
2021/07/16 07:35:39;;;;;;;24.70;14.35;;;;;;;29.95;85.30;100593.29;1780850;79;21079;-88
2021/07/16 07:38:06;;;;;;;24.60;14.20;;;;;;;30.07;74.54;100590.51;1775381;77;21147;-90
2021/07/16 07:40:33;;;;;;;26.25;14.98;;;;;;;30.19;73.33;100588.52;1776542;78;21068;-87
2021/07/16 07:43:04;;;;;;;22.02;13.35;;;;;;;30.31;79.03;100586.27;1787183;79;21505;-88
2021/07/16 07:45:32;;;;;;;19.77;13.28;;;;;;;30.41;79.41;100587.72;1777312;78;21614;-89
2021/07/16 07:48:04;;;;;;;21.10;11.83;;;;;;;30.51;77.71;100583.86;1790824;78;21126;-91
2021/07/16 07:50:44;;;;;;;;;;;;;;;;;;;;;
2021/07/16 07:56:09;;;;;;;;;;;;;;;;;;;;;
2021/07/16 07:58:47;;;;;;;;;;;;;;;;;;;;;
2021/07/16 08:01:28;;;;;;;;;;;;;;;;;;;;;
2021/07/16 08:04:04;;;;;;;;;;;;;;;;;;;;;
2021/07/16 08:06:42;;;;;;;;;;;;;;;;;;;;;
2021/07/16 08:09:19;;;;;;;;;;;;;;;;;;;;;
2021/07/16 08:12:09;;;;;;;;;;;;;;;;;;;;;
2021/07/16 08:22:52;;;;;;;13.58;7.53;;;;;;;31.39;57.66;100559.25;1311313;106;21699;-90
2021/07/16 08:25:36;;;;;;;;;;;;;;;;;;;;;
2021/07/16 08:28:22;;;;;;;;;;;;;;;;;;;;;
2021/07/16 08:31:08;;;;;;;;;;;;;;;;;;;;;
2021/07/16 08:35:25;;;;;;;;;;;;;;;;;;;;;
2021/07/16 08:38:51;;;;;;;10.50;6.10;;;;;;;31.78;52.83;100560.93;1345695;103;21716;-88
2021/07/16 08:41:19;;;;;;;10.32;6.33;;;;;;;31.97;49.04;100559.97;1348274;104;21172;-86
2021/07/16 08:43:48;;;;;;;13.62;6.85;;;;;;;32.05;46.51;100566.75;1596697;81;20955;-89
2021/07/16 08:46:15;;;;;;;7.33;5.33;;;;;;;32.05;45.59;100567.55;1715779;82;21152;-91
2021/07/16 08:48:43;;;;;;;10.25;6.15;;;;;;;32.04;47.34;100560.54;1793950;77;20942;-88
2021/07/16 08:51:13;;;;;;;7.37;6.30;;;;;;;32.02;52.12;100559.19;1795918;77;20962;-87
2021/07/16 08:53:40;;;;;;;8.83;5.90;;;;;;;32.05;56.55;100564.86;1798370;79;21200;-90
2021/07/16 08:56:09;;;;;;;11.95;6.15;;;;;;;32.17;51.80;100563.86;1814040;78;21552;-89
2021/07/16 08:58:36;;;;;;;6.40;5.78;;;;;;;32.24;46.93;100559.07;1761333;78;21819;-88
2021/07/16 09:01:03;;;;;;;9.70;5.83;;;;;;;32.22;46.63;100557.17;1796682;78;21050;-84
2021/07/16 09:03:31;;;;;;;7.30;5.65;;;;;;;32.20;49.00;100556.58;1724173;82;20958;-91
2021/07/16 09:05:59;;;;;;;9.03;5.83;;;;;;;32.23;50.50;100553.41;1754972;79;21545;-90
2021/07/16 09:08:28;;;;;;;15.23;6.62;;;;;;;32.31;52.29;100551.56;1793804;79;21505;-86
2021/07/16 09:10:59;;;;;;;10.72;5.90;;;;;;;32.41;50.86;100554.27;1710504;82;21604;-85
2021/07/16 09:13:29;;;;;;;9.25;6.15;;;;;;;32.45;47.12;100557.25;1763123;79;21035;-89
2021/07/16 09:16:02;;;;;;;9.58;6.28;;;;;;;32.47;47.50;100552.96;1770639;79;21465;-89
2021/07/16 09:18:32;;;;;;;10.80;6.78;;;;;;;32.54;46.89;100546.78;1765768;79;21006;-88
2021/07/16 09:21:07;;;;;;;9.60;6.28;;;;;;;32.61;47.78;100547.34;1799531;78;20993;-89
2021/07/16 09:23:42;;;;;;;9.80;6.12;;;;;;;32.53;47.56;100551.90;1801357;79;21137;-87
2021/07/16 09:26:25;;;;;;;8.55;7.33;;;;;;;32.53;47.56;100551.90;1754618;79;21505;-84
2021/07/16 09:28:50;;;;;;;11.45;6.25;;;;;;;32.57;48.62;100552.98;1769371;79;21073;-90
2021/07/16 09:31:29;;;;;;;12.40;6.78;;;;;;;32.64;44.27;100546.83;1780617;79;21002;-87
2021/07/16 09:34:01;;;;;;;10.70;6.25;;;;;;;32.72;45.41;100551.70;1697440;82;21164;-90
2021/07/16 09:36:34;;;;;;;9.20;6.95;;;;;;;32.79;44.38;100546.62;1780475;79;21957;-87
2021/07/16 09:39:20;;;;;;;9.98;6.65;;;;;;;32.76;45.28;100545.76;1701621;82;21505;-87
2021/07/16 09:41:53;;;;;;;7.00;6.33;;;;;;;32.88;47.51;100540.42;1727032;83;21087;-89
2021/07/16 09:44:34;;;;;;;7.70;6.85;;;;;;;32.88;47.51;100540.42;1811268;77;20980;-88
2021/07/16 09:47:20;;;;;;;8.93;6.92;;;;;;;32.96;47.05;100541.80;1714965;82;21030;-83
2021/07/16 09:50:10;;;;;;;8.70;6.15;;;;;;;33.01;40.56;100536.95;1738426;81;21160;-85
2021/07/16 09:52:37;;;;;;;7.72;6.25;;;;;;;32.92;42.46;100529.92;1759485;80;21015;-86
2021/07/16 09:55:32;;;;;;;;;;;;;;;;;;;;;
2021/07/16 10:07:10;;;;;;;;;;;;;;;;;;;;;
2021/07/16 10:11:19;;;;;;;;;;;;;;;;;;;;;
2021/07/16 10:16:56;;;;;;;;;;;;;;;;;;;;;
2021/07/16 10:19:49;;;;;;;;;;;;;;;;;;;;;
2021/07/16 10:23:25;;;;;;;;;;;;;;;;;;;;;
2021/07/16 10:26:32;;;;;;;;;;;;;;;;;;;;;
2021/07/16 10:34:45;;;;;;;10.47;8.53;;;;;;;33.04;42.90;100495.95;1265436;109;21230;-87
2021/07/16 10:37:15;;;;;;;11.85;8.70;;;;;;;32.96;45.51;100491.92;1265772;107;21304;-87
2021/07/16 10:43:09;;;;;;;13.20;9.00;;;;;;;33.31;44.78;100492.18;1336641;101;21301;-91
2021/07/16 12:50:24;;;;;;;13.48;12.10;;;;;;;33.88;49.84;100399.77;1820270;77;21612;-90
2021/07/16 12:53:02;;;;;;;13.00;11.75;;;;;;;33.88;49.21;100398.42;1786984;78;21464;-89
2021/07/16 12:55:35;;;;;;;14.28;12.40;;;;;;;33.82;52.37;100389.50;1777824;78;21045;-89
2021/07/16 12:58:07;;;;;;;14.65;12.95;;;;;;;33.80;55.45;100384.94;1811079;77;21005;-89
2021/07/16 13:00:36;;;;;;;13.83;12.33;;;;;;;33.80;56.81;100396.27;1790140;78;21590;-91
2021/07/16 13:03:18;;;;;;;13.72;12.23;;;;;;;33.91;61.15;100399.22;1789834;78;21069;-89
2021/07/16 13:05:46;;;;;;;13.48;12.37;;;;;;;34.06;54.55;100388.86;1730392;80;21015;-91
2021/07/16 13:08:21;;;;;;;13.70;11.70;;;;;;;34.13;48.83;100393.41;1737182;81;21085;-91
2021/07/16 13:11:01;;;;;;;12.80;11.80;;;;;;;34.20;49.72;100385.56;1774548;79;21079;-88
2021/07/16 13:59:55;;;;;;;;;;;;;;;;;;;;;
2021/07/16 14:02:29;;;;;;;22.05;15.20;;;;;;;31.09;92.96;100399.30;1352038;104;21210;-91
2021/07/16 14:05:13;;;;;;;;;;;;;;;;;;;;;
2021/07/16 14:10:34;;;;;;;;;;;;;;;;;;;;;
2021/07/16 14:12:55;;;;;;;19.50;15.38;;;;;;;29.73;100.00;100401.36;1422403;96;21179;-90
2021/07/16 14:15:24;;;;;;;18.05;14.18;;;;;;;29.61;100.00;100403.33;1488108;95;21082;-88
2021/07/16 14:17:55;;;;;;;18.95;15.05;;;;;;;29.46;100.00;100407.42;1467991;95;22072;-87
2021/07/16 14:20:27;;;;;;;20.17;14.93;;;;;;;29.33;100.00;100408.58;1554927;89;21124;-87
2021/07/16 14:22:55;;;;;;;16.62;15.03;;;;;;;29.22;100.00;100407.59;1661187;83;21210;-90
2021/07/16 14:25:25;;;;;;;16.23;14.63;;;;;;;29.10;100.00;100395.61;1688189;83;21718;-88
2021/07/16 14:28:09;;;;;;;15.85;14.45;;;;;;;29.01;100.00;100392.25;1679919;83;21178;-90
2021/07/16 14:30:50;;;;;;;;;;;;;;;;;;;;;
2021/07/16 14:33:45;;;;;;;;;;;;;;;;;;;;;
2021/07/16 14:39:14;;;;;;;;;;;;;;;;;;;;;
2021/07/16 14:51:18;;;;;;;;;;;;;;;;;;;;;
2021/07/16 14:54:08;;;;;;;;;;;;;;;;;;;;;
2021/07/16 14:57:13;;;;;;;;;;;;;;;;;;;;;
2021/07/16 15:00:02;;;;;;;;;;;;;;;;;;;;;
2021/07/16 15:05:50;;;;;;;;;;;;;;;;;;;;;
2021/07/16 15:10:12;;;;;;;;;;;;;;;;;;;;;
2021/07/16 15:16:25;;;;;;;;;;;;;;;;;;;;;
2021/07/16 15:19:02;;;;;;;;;;;;;;;;;;;;;
2021/07/16 15:22:49;;;;;;;;;;;;;;;;;;;;;
2021/07/16 15:30:47;;;;;;;;;;;;;;;;;;;;;
2021/07/16 15:33:44;;;;;;;;;;;;;;;;;;;;;
2021/07/16 15:36:04;;;;;;;;;;;;;;;;;;;;;
2021/07/16 15:38:36;;;;;;;;;;;;;;;;;;;;;
2021/07/16 15:41:05;;;;;;;22.70;19.23;;;;;;;28.51;100.00;100391.93;1337703;105;21740;-88
2021/07/16 15:43:47;;;;;;;;;;;;;;;;;;;;;
2021/07/16 15:46:22;;;;;;;;;;;;;;;;;;;;;
2021/07/16 15:49:18;;;;;;;;;;;;;;;;;;;;;
2021/07/16 15:52:38;;;;;;;;;;;;;;;;;;;;;
2021/07/16 15:55:13;;;;;;;19.87;18.10;;;;;;;28.56;100.00;100409.45;1334846;103;21219;-88
2021/07/16 15:57:56;;;;;;;;;;;;;;;;;;;;;
2021/07/16 16:00:33;;;;;;;;;;;;;;;;;;;;;
2021/07/16 16:03:22;;;;;;;20.92;19.02;;;;;;;28.65;100.00;100417.35;1315468;107;21105;-90
2021/07/16 16:06:08;;;;;;;;;;;;;;;;;;;;;
2021/07/16 16:08:38;;;;;;;;;;;;;;;;;;;;;
2021/07/16 16:11:19;;;;;;;22.42;20.02;;;;;;;28.75;100.00;100423.98;1261275;111;21241;-88
2021/07/16 16:13:57;;;;;;;21.10;19.02;;;;;;;28.79;100.00;100425.13;1297074;107;21281;-90
2021/07/16 16:17:31;;;;;;;23.10;19.85;;;;;;;28.79;100.00;100421.91;1292186;108;21726;-89
2021/07/16 16:20:15;;;;;;;;;;;;;;;;;;;;;
2021/07/16 16:22:48;;;;;;;27.37;20.95;;;;;;;28.79;100.00;100421.11;1291816;106;21200;-87
2021/07/16 16:25:15;;;;;;;22.80;19.48;;;;;;;28.78;100.00;100424.84;1354463;95;21248;-87
2021/07/16 16:27:42;;;;;;;21.62;19.35;;;;;;;28.78;100.00;100424.30;1485906;94;21150;-89
2021/07/16 16:30:11;;;;;;;21.42;19.27;;;;;;;28.80;100.00;100420.86;1485683;94;21099;-89
2021/07/16 16:32:38;;;;;;;25.20;18.85;;;;;;;28.85;100.00;100426.01;1577676;89;21820;-90
2021/07/16 16:35:07;;;;;;;27.60;20.08;;;;;;;28.86;100.00;100425.79;1553222;88;21841;-88
2021/07/16 16:37:35;;;;;;;24.40;19.12;;;;;;;28.83;100.00;100420.91;1658680;84;21705;-89
2021/07/16 16:40:10;;;;;;;27.67;20.68;;;;;;;28.77;100.00;100422.67;1641225;85;21025;-88
2021/07/16 16:42:32;;;;;;;29.70;19.02;;;;;;;28.73;100.00;100424.73;1693124;80;21057;-88
2021/07/16 16:45:00;;;;;;;31.17;21.12;;;;;;;28.68;100.00;100426.80;1692546;82;21580;-90
2021/07/16 16:47:27;;;;;;;24.70;19.92;;;;;;;28.63;100.00;100420.82;1673434;82;21128;-90